sensor_id;sensor_type;location;lat;lon;timestamp;temperature;humidity
7998;DHT22;4044;49.814;7.828;2023-06-22T00:02:15;23.10;87.90
7998;DHT22;4044;49.814;7.828;2023-06-22T00:04:40;23.20;89.20
7998;DHT22;4044;49.814;7.828;2023-06-22T00:07:06;23.20;89.70
7998;DHT22;4044;49.814;7.828;2023-06-22T00:09:32;23.10;90.50
7998;DHT22;4044;49.814;7.828;2023-06-22T00:11:58;22.90;91.30
7998;DHT22;4044;49.814;7.828;2023-06-22T00:14:23;22.80;91.80
7998;DHT22;4044;49.814;7.828;2023-06-22T00:16:49;22.50;92.60
7998;DHT22;4044;49.814;7.828;2023-06-22T00:19:17;22.30;92.90
7998;DHT22;4044;49.814;7.828;2023-06-22T00:21:44;22.10;94.70
7998;DHT22;4044;49.814;7.828;2023-06-22T00:24:12;21.80;95.90
7998;DHT22;4044;49.814;7.828;2023-06-22T00:26:38;21.60;96.90
7998;DHT22;4044;49.814;7.828;2023-06-22T00:29:03;21.40;97.50
7998;DHT22;4044;49.814;7.828;2023-06-22T00:31:29;21.20;99.90
7998;DHT22;4044;49.814;7.828;2023-06-22T00:33:55;21.10;99.90
7998;DHT22;4044;49.814;7.828;2023-06-22T00:36:20;21.10;99.70
7998;DHT22;4044;49.814;7.828;2023-06-22T00:38:46;21.20;99.90
7998;DHT22;4044;49.814;7.828;2023-06-22T00:41:11;21.20;99.90
7998;DHT22;4044;49.814;7.828;2023-06-22T00:43:37;21.10;99.90
7998;DHT22;4044;49.814;7.828;2023-06-22T00:46:02;20.90;99.90
7998;DHT22;4044;49.814;7.828;2023-06-22T00:48:28;20.90;99.90
7998;DHT22;4044;49.814;7.828;2023-06-22T00:50:54;20.90;99.90
7998;DHT22;4044;49.814;7.828;2023-06-22T00:53:21;20.80;99.90
7998;DHT22;4044;49.814;7.828;2023-06-22T00:55:46;20.70;99.90
7998;DHT22;4044;49.814;7.828;2023-06-22T00:58:13;20.60;99.90
7998;DHT22;4044;49.814;7.828;2023-06-22T01:00:41;20.50;99.90
7998;DHT22;4044;49.814;7.828;2023-06-22T01:03:07;20.40;99.90
7998;DHT22;4044;49.814;7.828;2023-06-22T01:05:36;20.30;99.90
7998;DHT22;4044;49.814;7.828;2023-06-22T01:08:29;20.20;99.90
7998;DHT22;4044;49.814;7.828;2023-06-22T01:11:37;20.10;99.90
7998;DHT22;4044;49.814;7.828;2023-06-22T01:14:15;20.20;99.90
7998;DHT22;4044;49.814;7.828;2023-06-22T01:16:44;20.20;99.90
7998;DHT22;4044;49.814;7.828;2023-06-22T01:19:35;20.20;99.90
7998;DHT22;4044;49.814;7.828;2023-06-22T01:22:02;20.20;99.90
7998;DHT22;4044;49.814;7.828;2023-06-22T01:24:33;20.30;99.90
7998;DHT22;4044;49.814;7.828;2023-06-22T01:27:17;20.30;99.90
7998;DHT22;4044;49.814;7.828;2023-06-22T01:29:55;20.40;99.90
7998;DHT22;4044;49.814;7.828;2023-06-22T01:32:31;20.40;99.90
7998;DHT22;4044;49.814;7.828;2023-06-22T01:35:01;20.50;99.90
7998;DHT22;4044;49.814;7.828;2023-06-22T01:37:29;20.50;99.90
7998;DHT22;4044;49.814;7.828;2023-06-22T01:39:55;20.40;99.90
7998;DHT22;4044;49.814;7.828;2023-06-22T01:42:24;20.40;99.90
7998;DHT22;4044;49.814;7.828;2023-06-22T01:44:50;20.50;99.90
7998;DHT22;4044;49.814;7.828;2023-06-22T01:47:16;20.50;99.90
7998;DHT22;4044;49.814;7.828;2023-06-22T01:49:43;20.50;99.90
7998;DHT22;4044;49.814;7.828;2023-06-22T01:52:09;20.60;99.90
7998;DHT22;4044;49.814;7.828;2023-06-22T01:54:36;20.60;99.90
7998;DHT22;4044;49.814;7.828;2023-06-22T01:57:02;20.60;99.90
7998;DHT22;4044;49.814;7.828;2023-06-22T02:02:24;20.60;99.90
7998;DHT22;4044;49.814;7.828;2023-06-22T02:05:01;20.60;99.90
7998;DHT22;4044;49.814;7.828;2023-06-22T02:07:41;20.60;99.90
7998;DHT22;4044;49.814;7.828;2023-06-22T02:10:09;20.60;99.90
7998;DHT22;4044;49.814;7.828;2023-06-22T02:12:37;20.50;99.90
7998;DHT22;4044;49.814;7.828;2023-06-22T02:15:04;20.50;99.90
7998;DHT22;4044;49.814;7.828;2023-06-22T02:17:30;20.60;99.90
7998;DHT22;4044;49.814;7.828;2023-06-22T02:19:58;20.60;99.90
7998;DHT22;4044;49.814;7.828;2023-06-22T02:22:24;20.50;99.90
7998;DHT22;4044;49.814;7.828;2023-06-22T02:24:49;20.50;99.90
7998;DHT22;4044;49.814;7.828;2023-06-22T02:27:15;20.50;99.90
7998;DHT22;4044;49.814;7.828;2023-06-22T02:29:40;20.50;99.90
7998;DHT22;4044;49.814;7.828;2023-06-22T02:32:06;20.60;99.90
7998;DHT22;4044;49.814;7.828;2023-06-22T02:34:32;20.60;99.90
7998;DHT22;4044;49.814;7.828;2023-06-22T02:36:59;20.70;99.90
7998;DHT22;4044;49.814;7.828;2023-06-22T02:39:25;20.70;99.90
7998;DHT22;4044;49.814;7.828;2023-06-22T02:41:52;20.60;99.90
7998;DHT22;4044;49.814;7.828;2023-06-22T02:44:18;20.60;99.90
7998;DHT22;4044;49.814;7.828;2023-06-22T02:46:45;20.60;99.90
7998;DHT22;4044;49.814;7.828;2023-06-22T02:49:11;20.60;99.90
7998;DHT22;4044;49.814;7.828;2023-06-22T02:51:39;20.60;99.90
7998;DHT22;4044;49.814;7.828;2023-06-22T02:54:05;20.60;99.90
7998;DHT22;4044;49.814;7.828;2023-06-22T02:56:31;20.50;99.90
7998;DHT22;4044;49.814;7.828;2023-06-22T02:58:57;20.50;99.90
7998;DHT22;4044;49.814;7.828;2023-06-22T03:01:26;20.50;99.90
7998;DHT22;4044;49.814;7.828;2023-06-22T03:03:56;20.40;99.90
7998;DHT22;4044;49.814;7.828;2023-06-22T03:06:22;20.40;99.90
7998;DHT22;4044;49.814;7.828;2023-06-22T03:08:51;20.40;99.90
7998;DHT22;4044;49.814;7.828;2023-06-22T03:11:16;20.40;99.90
7998;DHT22;4044;49.814;7.828;2023-06-22T03:13:42;20.40;99.90
7998;DHT22;4044;49.814;7.828;2023-06-22T03:16:08;20.40;99.90
7998;DHT22;4044;49.814;7.828;2023-06-22T03:18:34;20.40;99.90
7998;DHT22;4044;49.814;7.828;2023-06-22T03:20:59;20.40;99.90
7998;DHT22;4044;49.814;7.828;2023-06-22T03:23:27;20.40;99.90
7998;DHT22;4044;49.814;7.828;2023-06-22T03:25:53;20.40;99.90
7998;DHT22;4044;49.814;7.828;2023-06-22T03:28:21;20.30;99.90
7998;DHT22;4044;49.814;7.828;2023-06-22T03:30:47;20.30;99.90
7998;DHT22;4044;49.814;7.828;2023-06-22T03:33:12;20.30;99.90
7998;DHT22;4044;49.814;7.828;2023-06-22T03:35:38;20.30;99.90
7998;DHT22;4044;49.814;7.828;2023-06-22T03:38:03;20.20;99.90
7998;DHT22;4044;49.814;7.828;2023-06-22T03:40:29;20.20;99.90
7998;DHT22;4044;49.814;7.828;2023-06-22T03:42:55;20.20;99.90
7998;DHT22;4044;49.814;7.828;2023-06-22T03:45:21;20.20;99.90
7998;DHT22;4044;49.814;7.828;2023-06-22T03:47:46;20.10;99.90
7998;DHT22;4044;49.814;7.828;2023-06-22T03:50:12;20.00;99.90
7998;DHT22;4044;49.814;7.828;2023-06-22T03:52:37;19.90;99.90
7998;DHT22;4044;49.814;7.828;2023-06-22T03:55:03;20.00;99.90
7998;DHT22;4044;49.814;7.828;2023-06-22T03:57:28;20.00;99.90
7998;DHT22;4044;49.814;7.828;2023-06-22T03:59:56;20.00;99.90
7998;DHT22;4044;49.814;7.828;2023-06-22T04:02:23;20.00;99.90
7998;DHT22;4044;49.814;7.828;2023-06-22T04:04:48;20.00;99.90
7998;DHT22;4044;49.814;7.828;2023-06-22T04:07:14;20.10;99.90
7998;DHT22;4044;49.814;7.828;2023-06-22T04:09:39;20.00;99.90
7998;DHT22;4044;49.814;7.828;2023-06-22T04:12:05;20.00;99.90
7998;DHT22;4044;49.814;7.828;2023-06-22T04:14:31;19.90;99.90
7998;DHT22;4044;49.814;7.828;2023-06-22T04:16:57;19.80;99.90
7998;DHT22;4044;49.814;7.828;2023-06-22T04:19:23;19.80;99.90
7998;DHT22;4044;49.814;7.828;2023-06-22T04:21:49;19.80;99.90
7998;DHT22;4044;49.814;7.828;2023-06-22T04:24:15;19.70;99.90
7998;DHT22;4044;49.814;7.828;2023-06-22T04:26:41;19.70;99.90
7998;DHT22;4044;49.814;7.828;2023-06-22T04:29:08;19.70;99.90
7998;DHT22;4044;49.814;7.828;2023-06-22T04:31:36;19.70;99.90
7998;DHT22;4044;49.814;7.828;2023-06-22T04:34:03;19.70;99.90
7998;DHT22;4044;49.814;7.828;2023-06-22T04:36:40;19.60;99.90
7998;DHT22;4044;49.814;7.828;2023-06-22T04:39:07;19.70;99.90
7998;DHT22;4044;49.814;7.828;2023-06-22T04:41:40;19.70;99.90
7998;DHT22;4044;49.814;7.828;2023-06-22T04:44:10;19.70;99.90
7998;DHT22;4044;49.814;7.828;2023-06-22T04:46:36;19.70;99.90
7998;DHT22;4044;49.814;7.828;2023-06-22T04:49:07;19.60;99.90
7998;DHT22;4044;49.814;7.828;2023-06-22T04:51:37;19.60;99.90
7998;DHT22;4044;49.814;7.828;2023-06-22T04:54:03;19.60;99.90
7998;DHT22;4044;49.814;7.828;2023-06-22T04:56:31;19.70;99.90
7998;DHT22;4044;49.814;7.828;2023-06-22T04:58:56;19.70;99.90
7998;DHT22;4044;49.814;7.828;2023-06-22T05:01:23;19.80;99.90
7998;DHT22;4044;49.814;7.828;2023-06-22T05:03:49;19.90;99.90
7998;DHT22;4044;49.814;7.828;2023-06-22T05:06:15;19.90;99.90
7998;DHT22;4044;49.814;7.828;2023-06-22T05:08:40;20.00;99.90
7998;DHT22;4044;49.814;7.828;2023-06-22T05:11:06;20.20;99.90
7998;DHT22;4044;49.814;7.828;2023-06-22T05:13:32;20.20;99.90
7998;DHT22;4044;49.814;7.828;2023-06-22T05:15:57;20.40;99.90
7998;DHT22;4044;49.814;7.828;2023-06-22T05:18:30;20.50;99.90
7998;DHT22;4044;49.814;7.828;2023-06-22T05:20:56;20.60;99.90
7998;DHT22;4044;49.814;7.828;2023-06-22T05:23:21;20.70;99.90
7998;DHT22;4044;49.814;7.828;2023-06-22T05:25:47;20.80;99.90
7998;DHT22;4044;49.814;7.828;2023-06-22T05:28:12;20.80;99.90
7998;DHT22;4044;49.814;7.828;2023-06-22T05:30:39;20.90;99.90
7998;DHT22;4044;49.814;7.828;2023-06-22T05:33:04;21.00;99.90
7998;DHT22;4044;49.814;7.828;2023-06-22T05:35:30;21.10;99.90
7998;DHT22;4044;49.814;7.828;2023-06-22T05:37:56;21.10;99.90
7998;DHT22;4044;49.814;7.828;2023-06-22T05:40:21;21.20;99.90
7998;DHT22;4044;49.814;7.828;2023-06-22T05:42:47;21.40;99.90
7998;DHT22;4044;49.814;7.828;2023-06-22T05:45:13;21.50;99.90
7998;DHT22;4044;49.814;7.828;2023-06-22T05:47:38;21.60;99.90
7998;DHT22;4044;49.814;7.828;2023-06-22T05:50:05;21.70;99.90
7998;DHT22;4044;49.814;7.828;2023-06-22T05:52:33;21.80;99.90
7998;DHT22;4044;49.814;7.828;2023-06-22T05:54:59;21.90;99.90
7998;DHT22;4044;49.814;7.828;2023-06-22T05:57:24;22.00;99.90
7998;DHT22;4044;49.814;7.828;2023-06-22T05:59:50;22.10;99.90
7998;DHT22;4044;49.814;7.828;2023-06-22T06:02:15;22.10;99.90
7998;DHT22;4044;49.814;7.828;2023-06-22T06:04:41;22.20;99.90
7998;DHT22;4044;49.814;7.828;2023-06-22T06:07:06;22.20;99.90
7998;DHT22;4044;49.814;7.828;2023-06-22T06:09:32;22.20;99.90
7998;DHT22;4044;49.814;7.828;2023-06-22T06:11:57;22.30;99.90
7998;DHT22;4044;49.814;7.828;2023-06-22T06:14:23;22.30;99.90
7998;DHT22;4044;49.814;7.828;2023-06-22T06:16:49;22.40;99.90
7998;DHT22;4044;49.814;7.828;2023-06-22T06:19:15;22.40;99.90
7998;DHT22;4044;49.814;7.828;2023-06-22T06:21:40;22.40;99.90
7998;DHT22;4044;49.814;7.828;2023-06-22T06:24:06;22.40;99.90
7998;DHT22;4044;49.814;7.828;2023-06-22T06:26:31;22.50;99.90
7998;DHT22;4044;49.814;7.828;2023-06-22T06:28:59;22.50;99.90
7998;DHT22;4044;49.814;7.828;2023-06-22T06:31:25;22.60;99.90
7998;DHT22;4044;49.814;7.828;2023-06-22T06:33:55;22.60;99.90
7998;DHT22;4044;49.814;7.828;2023-06-22T06:36:20;22.60;99.90
7998;DHT22;4044;49.814;7.828;2023-06-22T06:38:46;22.60;99.90
7998;DHT22;4044;49.814;7.828;2023-06-22T06:41:16;22.70;99.90
7998;DHT22;4044;49.814;7.828;2023-06-22T06:43:42;22.80;99.90
7998;DHT22;4044;49.814;7.828;2023-06-22T06:46:10;22.90;99.90
7998;DHT22;4044;49.814;7.828;2023-06-22T06:48:36;23.00;99.90
7998;DHT22;4044;49.814;7.828;2023-06-22T06:51:01;23.10;99.90
7998;DHT22;4044;49.814;7.828;2023-06-22T06:53:27;23.30;99.90
7998;DHT22;4044;49.814;7.828;2023-06-22T06:55:54;23.40;99.90
7998;DHT22;4044;49.814;7.828;2023-06-22T06:58:19;23.50;99.90
7998;DHT22;4044;49.814;7.828;2023-06-22T07:00:45;23.60;99.90
7998;DHT22;4044;49.814;7.828;2023-06-22T07:03:11;23.70;99.90
7998;DHT22;4044;49.814;7.828;2023-06-22T07:05:36;23.80;99.90
7998;DHT22;4044;49.814;7.828;2023-06-22T07:08:02;23.90;99.90
7998;DHT22;4044;49.814;7.828;2023-06-22T07:10:29;24.10;99.90
7998;DHT22;4044;49.814;7.828;2023-06-22T07:12:55;24.20;99.90
7998;DHT22;4044;49.814;7.828;2023-06-22T07:15:20;24.30;99.90
7998;DHT22;4044;49.814;7.828;2023-06-22T07:17:46;24.40;99.90
7998;DHT22;4044;49.814;7.828;2023-06-22T07:20:11;24.40;99.90
7998;DHT22;4044;49.814;7.828;2023-06-22T07:22:42;24.40;99.90
7998;DHT22;4044;49.814;7.828;2023-06-22T07:25:08;24.60;99.90
7998;DHT22;4044;49.814;7.828;2023-06-22T07:27:39;24.60;99.90
7998;DHT22;4044;49.814;7.828;2023-06-22T07:30:08;24.80;99.90
7998;DHT22;4044;49.814;7.828;2023-06-22T07:32:35;24.90;99.90
7998;DHT22;4044;49.814;7.828;2023-06-22T07:35:00;24.90;99.90
7998;DHT22;4044;49.814;7.828;2023-06-22T07:37:27;25.00;99.90
7998;DHT22;4044;49.814;7.828;2023-06-22T07:39:53;25.10;99.90
7998;DHT22;4044;49.814;7.828;2023-06-22T07:42:26;25.20;99.90
7998;DHT22;4044;49.814;7.828;2023-06-22T07:44:52;25.30;99.90
7998;DHT22;4044;49.814;7.828;2023-06-22T07:47:18;25.40;99.90
7998;DHT22;4044;49.814;7.828;2023-06-22T07:49:45;25.50;99.90
7998;DHT22;4044;49.814;7.828;2023-06-22T07:52:11;25.60;99.90
7998;DHT22;4044;49.814;7.828;2023-06-22T07:54:36;25.70;99.90
7998;DHT22;4044;49.814;7.828;2023-06-22T07:57:02;25.70;99.90
7998;DHT22;4044;49.814;7.828;2023-06-22T07:59:28;25.80;99.90
7998;DHT22;4044;49.814;7.828;2023-06-22T08:01:55;25.90;99.90
7998;DHT22;4044;49.814;7.828;2023-06-22T08:04:20;26.00;99.90
7998;DHT22;4044;49.814;7.828;2023-06-22T08:06:46;26.10;99.90
7998;DHT22;4044;49.814;7.828;2023-06-22T08:09:11;26.20;99.90
7998;DHT22;4044;49.814;7.828;2023-06-22T08:11:37;26.40;99.90
7998;DHT22;4044;49.814;7.828;2023-06-22T08:14:03;26.40;99.90
7998;DHT22;4044;49.814;7.828;2023-06-22T08:16:28;26.50;99.90
7998;DHT22;4044;49.814;7.828;2023-06-22T08:18:54;26.70;99.90
7998;DHT22;4044;49.814;7.828;2023-06-22T08:21:20;26.80;99.90
7998;DHT22;4044;49.814;7.828;2023-06-22T08:23:45;27.00;99.90
7998;DHT22;4044;49.814;7.828;2023-06-22T08:26:11;27.20;99.90
7998;DHT22;4044;49.814;7.828;2023-06-22T08:28:36;27.40;99.90
7998;DHT22;4044;49.814;7.828;2023-06-22T08:31:02;27.50;99.20
7998;DHT22;4044;49.814;7.828;2023-06-22T08:33:29;27.50;99.50
7998;DHT22;4044;49.814;7.828;2023-06-22T08:35:56;27.50;99.50
7998;DHT22;4044;49.814;7.828;2023-06-22T08:38:21;27.80;98.80
7998;DHT22;4044;49.814;7.828;2023-06-22T08:40:47;28.00;97.50
7998;DHT22;4044;49.814;7.828;2023-06-22T08:43:13;28.40;97.50
7998;DHT22;4044;49.814;7.828;2023-06-22T08:45:39;28.70;96.50
7998;DHT22;4044;49.814;7.828;2023-06-22T08:48:04;28.70;95.30
7998;DHT22;4044;49.814;7.828;2023-06-22T08:50:30;28.70;95.80
7998;DHT22;4044;49.814;7.828;2023-06-22T08:52:55;28.70;95.80
7998;DHT22;4044;49.814;7.828;2023-06-22T08:55:21;28.70;95.00
7998;DHT22;4044;49.814;7.828;2023-06-22T08:57:46;28.70;94.60
7998;DHT22;4044;49.814;7.828;2023-06-22T09:00:12;28.60;94.70
7998;DHT22;4044;49.814;7.828;2023-06-22T09:02:43;28.70;94.50
7998;DHT22;4044;49.814;7.828;2023-06-22T09:05:09;29.10;94.70
7998;DHT22;4044;49.814;7.828;2023-06-22T09:07:35;29.70;94.10
7998;DHT22;4044;49.814;7.828;2023-06-22T09:10:00;29.90;92.70
7998;DHT22;4044;49.814;7.828;2023-06-22T09:12:26;30.10;92.50
7998;DHT22;4044;49.814;7.828;2023-06-22T09:14:53;30.50;91.70
7998;DHT22;4044;49.814;7.828;2023-06-22T09:17:18;30.40;90.30
7998;DHT22;4044;49.814;7.828;2023-06-22T09:19:44;30.40;91.20
7998;DHT22;4044;49.814;7.828;2023-06-22T09:22:10;30.70;90.30
7998;DHT22;4044;49.814;7.828;2023-06-22T09:24:35;30.80;90.50
7998;DHT22;4044;49.814;7.828;2023-06-22T09:27:01;30.80;88.20
7998;DHT22;4044;49.814;7.828;2023-06-22T09:29:26;30.80;90.10
7998;DHT22;4044;49.814;7.828;2023-06-22T09:31:52;31.10;89.40
7998;DHT22;4044;49.814;7.828;2023-06-22T09:34:19;31.40;86.90
7998;DHT22;4044;49.814;7.828;2023-06-22T09:36:46;31.50;86.10
7998;DHT22;4044;49.814;7.828;2023-06-22T09:39:11;31.30;86.40
7998;DHT22;4044;49.814;7.828;2023-06-22T09:41:37;31.20;85.30
7998;DHT22;4044;49.814;7.828;2023-06-22T09:44:02;30.90;85.20
7998;DHT22;4044;49.814;7.828;2023-06-22T09:46:28;31.00;86.00
7998;DHT22;4044;49.814;7.828;2023-06-22T09:48:54;31.10;84.90
7998;DHT22;4044;49.814;7.828;2023-06-22T09:51:19;31.30;84.70
7998;DHT22;4044;49.814;7.828;2023-06-22T09:53:47;31.30;83.30
7998;DHT22;4044;49.814;7.828;2023-06-22T09:56:12;31.10;82.60
7998;DHT22;4044;49.814;7.828;2023-06-22T09:58:41;31.10;83.40
7998;DHT22;4044;49.814;7.828;2023-06-22T10:01:07;31.30;83.20
7998;DHT22;4044;49.814;7.828;2023-06-22T10:03:33;31.50;83.30
7998;DHT22;4044;49.814;7.828;2023-06-22T10:05:59;31.80;82.50
7998;DHT22;4044;49.814;7.828;2023-06-22T10:08:24;31.70;81.10
7998;DHT22;4044;49.814;7.828;2023-06-22T10:10:50;31.90;81.50
7998;DHT22;4044;49.814;7.828;2023-06-22T10:13:15;32.00;81.20
7998;DHT22;4044;49.814;7.828;2023-06-22T10:15:41;32.10;80.20
7998;DHT22;4044;49.814;7.828;2023-06-22T10:18:07;32.30;80.10
7998;DHT22;4044;49.814;7.828;2023-06-22T10:20:33;32.20;79.70
7998;DHT22;4044;49.814;7.828;2023-06-22T10:22:58;32.20;79.70
7998;DHT22;4044;49.814;7.828;2023-06-22T10:25:24;32.30;79.70
7998;DHT22;4044;49.814;7.828;2023-06-22T10:27:50;32.40;79.30
7998;DHT22;4044;49.814;7.828;2023-06-22T10:30:15;32.30;79.20
7998;DHT22;4044;49.814;7.828;2023-06-22T10:32:42;32.30;79.00
7998;DHT22;4044;49.814;7.828;2023-06-22T10:35:11;32.20;79.10
7998;DHT22;4044;49.814;7.828;2023-06-22T10:37:38;32.20;78.70
7998;DHT22;4044;49.814;7.828;2023-06-22T10:40:04;32.20;78.80
7998;DHT22;4044;49.814;7.828;2023-06-22T10:42:31;32.50;77.90
7998;DHT22;4044;49.814;7.828;2023-06-22T10:44:56;32.50;75.50
7998;DHT22;4044;49.814;7.828;2023-06-22T10:47:22;32.50;74.70
7998;DHT22;4044;49.814;7.828;2023-06-22T10:49:47;32.40;75.40
7998;DHT22;4044;49.814;7.828;2023-06-22T10:52:13;32.40;75.60
7998;DHT22;4044;49.814;7.828;2023-06-22T10:54:38;32.60;75.50
7998;DHT22;4044;49.814;7.828;2023-06-22T10:57:04;32.90;75.20
7998;DHT22;4044;49.814;7.828;2023-06-22T10:59:30;32.80;74.10
7998;DHT22;4044;49.814;7.828;2023-06-22T11:01:56;33.00;74.40
7998;DHT22;4044;49.814;7.828;2023-06-22T11:04:22;33.10;75.00
7998;DHT22;4044;49.814;7.828;2023-06-22T11:06:48;33.40;75.60
7998;DHT22;4044;49.814;7.828;2023-06-22T11:09:15;33.80;73.30
7998;DHT22;4044;49.814;7.828;2023-06-22T11:11:46;33.90;72.90
7998;DHT22;4044;49.814;7.828;2023-06-22T11:14:12;33.80;72.20
7998;DHT22;4044;49.814;7.828;2023-06-22T11:16:37;33.90;73.00
7998;DHT22;4044;49.814;7.828;2023-06-22T11:19:04;34.10;73.00
7998;DHT22;4044;49.814;7.828;2023-06-22T11:21:30;34.40;70.80
7998;DHT22;4044;49.814;7.828;2023-06-22T11:23:56;34.40;71.20
7998;DHT22;4044;49.814;7.828;2023-06-22T11:26:22;34.70;70.70
7998;DHT22;4044;49.814;7.828;2023-06-22T11:28:47;35.00;69.70
7998;DHT22;4044;49.814;7.828;2023-06-22T11:31:13;35.40;67.90
7998;DHT22;4044;49.814;7.828;2023-06-22T11:33:39;35.70;67.10
7998;DHT22;4044;49.814;7.828;2023-06-22T11:36:05;35.80;67.00
7998;DHT22;4044;49.814;7.828;2023-06-22T11:38:31;35.70;66.30
7998;DHT22;4044;49.814;7.828;2023-06-22T11:40:58;35.70;66.30
7998;DHT22;4044;49.814;7.828;2023-06-22T11:43:24;35.60;66.40
7998;DHT22;4044;49.814;7.828;2023-06-22T11:45:49;35.60;64.60
7998;DHT22;4044;49.814;7.828;2023-06-22T11:48:15;35.60;65.20
7998;DHT22;4044;49.814;7.828;2023-06-22T11:50:41;35.60;65.30
7998;DHT22;4044;49.814;7.828;2023-06-22T11:53:06;35.80;64.90
7998;DHT22;4044;49.814;7.828;2023-06-22T11:55:32;36.10;64.50
7998;DHT22;4044;49.814;7.828;2023-06-22T11:57:58;37.20;64.20
7998;DHT22;4044;49.814;7.828;2023-06-22T12:00:29;38.60;60.30
7998;DHT22;4044;49.814;7.828;2023-06-22T12:02:55;39.50;59.60
7998;DHT22;4044;49.814;7.828;2023-06-22T12:05:21;40.60;57.90
7998;DHT22;4044;49.814;7.828;2023-06-22T12:07:48;41.60;55.80
7998;DHT22;4044;49.814;7.828;2023-06-22T12:10:14;41.30;55.30
7998;DHT22;4044;49.814;7.828;2023-06-22T12:12:40;42.00;55.30
7998;DHT22;4044;49.814;7.828;2023-06-22T12:15:05;42.90;54.30
7998;DHT22;4044;49.814;7.828;2023-06-22T12:17:31;43.30;53.40
7998;DHT22;4044;49.814;7.828;2023-06-22T12:19:58;43.70;51.10
7998;DHT22;4044;49.814;7.828;2023-06-22T12:22:23;43.40;51.70
7998;DHT22;4044;49.814;7.828;2023-06-22T12:24:49;43.60;50.80
7998;DHT22;4044;49.814;7.828;2023-06-22T12:27:15;43.40;52.10
7998;DHT22;4044;49.814;7.828;2023-06-22T12:29:42;43.50;50.40
7998;DHT22;4044;49.814;7.828;2023-06-22T12:32:07;43.40;51.00
7998;DHT22;4044;49.814;7.828;2023-06-22T12:34:33;44.00;49.90
7998;DHT22;4044;49.814;7.828;2023-06-22T12:36:59;44.90;48.50
7998;DHT22;4044;49.814;7.828;2023-06-22T12:39:24;45.20;47.70
7998;DHT22;4044;49.814;7.828;2023-06-22T12:41:50;45.60;48.00
7998;DHT22;4044;49.814;7.828;2023-06-22T12:44:15;46.10;45.70
7998;DHT22;4044;49.814;7.828;2023-06-22T12:46:41;46.20;46.70
7998;DHT22;4044;49.814;7.828;2023-06-22T12:49:06;44.90;47.10
7998;DHT22;4044;49.814;7.828;2023-06-22T12:51:32;43.20;47.90
7998;DHT22;4044;49.814;7.828;2023-06-22T12:53:57;43.20;48.20
7998;DHT22;4044;49.814;7.828;2023-06-22T12:56:23;43.20;47.60
7998;DHT22;4044;49.814;7.828;2023-06-22T12:58:48;43.00;49.00
7998;DHT22;4044;49.814;7.828;2023-06-22T13:01:14;43.70;48.00
7998;DHT22;4044;49.814;7.828;2023-06-22T13:03:40;44.10;47.50
7998;DHT22;4044;49.814;7.828;2023-06-22T13:06:05;43.90;46.80
7998;DHT22;4044;49.814;7.828;2023-06-22T13:08:31;43.00;46.50
7998;DHT22;4044;49.814;7.828;2023-06-22T13:10:56;42.70;48.60
7998;DHT22;4044;49.814;7.828;2023-06-22T13:13:25;42.50;47.80
7998;DHT22;4044;49.814;7.828;2023-06-22T13:15:52;41.90;48.30
7998;DHT22;4044;49.814;7.828;2023-06-22T13:18:19;41.30;49.50
7998;DHT22;4044;49.814;7.828;2023-06-22T13:20:44;40.70;50.00
7998;DHT22;4044;49.814;7.828;2023-06-22T13:23:11;40.90;50.70
7998;DHT22;4044;49.814;7.828;2023-06-22T13:25:36;41.60;49.50
7998;DHT22;4044;49.814;7.828;2023-06-22T13:28:02;43.10;49.00
7998;DHT22;4044;49.814;7.828;2023-06-22T13:30:28;44.50;45.90
7998;DHT22;4044;49.814;7.828;2023-06-22T13:32:53;44.50;43.90
7998;DHT22;4044;49.814;7.828;2023-06-22T13:35:19;45.00;43.80
7998;DHT22;4044;49.814;7.828;2023-06-22T13:37:44;43.10;42.30
7998;DHT22;4044;49.814;7.828;2023-06-22T13:40:10;41.60;43.80
7998;DHT22;4044;49.814;7.828;2023-06-22T13:42:36;39.70;45.10
7998;DHT22;4044;49.814;7.828;2023-06-22T13:45:02;38.20;47.00
7998;DHT22;4044;49.814;7.828;2023-06-22T13:47:29;37.40;50.50
7998;DHT22;4044;49.814;7.828;2023-06-22T13:49:55;36.90;52.80
7998;DHT22;4044;49.814;7.828;2023-06-22T13:52:20;36.50;54.30
7998;DHT22;4044;49.814;7.828;2023-06-22T13:54:46;36.30;55.20
7998;DHT22;4044;49.814;7.828;2023-06-22T13:57:11;36.00;55.50
7998;DHT22;4044;49.814;7.828;2023-06-22T13:59:37;35.60;54.90
7998;DHT22;4044;49.814;7.828;2023-06-22T14:02:03;35.10;54.30
7998;DHT22;4044;49.814;7.828;2023-06-22T14:04:28;34.90;53.70
7998;DHT22;4044;49.814;7.828;2023-06-22T14:06:54;34.60;54.00
7998;DHT22;4044;49.814;7.828;2023-06-22T14:09:21;34.40;53.90
7998;DHT22;4044;49.814;7.828;2023-06-22T14:11:46;34.40;54.50
7998;DHT22;4044;49.814;7.828;2023-06-22T14:14:12;34.90;54.00
7998;DHT22;4044;49.814;7.828;2023-06-22T14:16:37;35.80;53.70
7998;DHT22;4044;49.814;7.828;2023-06-22T14:19:03;36.70;52.50
7998;DHT22;4044;49.814;7.828;2023-06-22T14:21:28;37.60;51.80
7998;DHT22;4044;49.814;7.828;2023-06-22T14:23:54;39.00;49.80
7998;DHT22;4044;49.814;7.828;2023-06-22T14:26:19;39.30;48.90
7998;DHT22;4044;49.814;7.828;2023-06-22T14:28:46;39.20;47.80
7998;DHT22;4044;49.814;7.828;2023-06-22T14:31:18;39.00;48.40
7998;DHT22;4044;49.814;7.828;2023-06-22T14:33:46;37.80;50.00
7998;DHT22;4044;49.814;7.828;2023-06-22T14:36:12;36.80;50.70
7998;DHT22;4044;49.814;7.828;2023-06-22T14:38:38;36.30;52.50
7998;DHT22;4044;49.814;7.828;2023-06-22T14:41:05;36.10;52.50
7998;DHT22;4044;49.814;7.828;2023-06-22T14:43:30;35.70;52.70
7998;DHT22;4044;49.814;7.828;2023-06-22T14:45:56;35.80;53.80
7998;DHT22;4044;49.814;7.828;2023-06-22T14:48:21;35.90;53.10
7998;DHT22;4044;49.814;7.828;2023-06-22T14:50:47;36.30;53.70
7998;DHT22;4044;49.814;7.828;2023-06-22T14:53:12;37.20;52.30
7998;DHT22;4044;49.814;7.828;2023-06-22T14:55:39;37.90;50.70
7998;DHT22;4044;49.814;7.828;2023-06-22T14:58:05;37.40;51.70
7998;DHT22;4044;49.814;7.828;2023-06-22T15:00:31;36.30;49.40
7998;DHT22;4044;49.814;7.828;2023-06-22T15:02:56;35.50;49.80
7998;DHT22;4044;49.814;7.828;2023-06-22T15:05:22;34.50;51.70
7998;DHT22;4044;49.814;7.828;2023-06-22T15:07:49;34.00;52.90
7998;DHT22;4044;49.814;7.828;2023-06-22T15:10:15;33.60;53.60
7998;DHT22;4044;49.814;7.828;2023-06-22T15:12:40;33.30;54.40
7998;DHT22;4044;49.814;7.828;2023-06-22T15:15:06;32.50;56.80
7998;DHT22;4044;49.814;7.828;2023-06-22T15:17:32;31.80;59.20
7998;DHT22;4044;49.814;7.828;2023-06-22T15:19:58;28.40;99.90
7998;DHT22;4044;49.814;7.828;2023-06-22T15:22:24;23.80;99.90
7998;DHT22;4044;49.814;7.828;2023-06-22T15:24:50;22.90;99.90
7998;DHT22;4044;49.814;7.828;2023-06-22T15:27:18;22.90;99.90
7998;DHT22;4044;49.814;7.828;2023-06-22T15:29:44;23.10;99.90
7998;DHT22;4044;49.814;7.828;2023-06-22T15:32:09;23.70;99.90
7998;DHT22;4044;49.814;7.828;2023-06-22T15:34:35;24.80;99.90
7998;DHT22;4044;49.814;7.828;2023-06-22T15:37:00;26.20;99.90
7998;DHT22;4044;49.814;7.828;2023-06-22T15:39:26;27.90;99.90
7998;DHT22;4044;49.814;7.828;2023-06-22T15:41:52;29.00;99.90
7998;DHT22;4044;49.814;7.828;2023-06-22T15:44:21;29.50;99.90
7998;DHT22;4044;49.814;7.828;2023-06-22T15:46:47;29.60;99.90
7998;DHT22;4044;49.814;7.828;2023-06-22T15:49:14;29.90;99.90
7998;DHT22;4044;49.814;7.828;2023-06-22T15:51:40;29.70;99.90
7998;DHT22;4044;49.814;7.828;2023-06-22T15:54:05;29.40;99.90
7998;DHT22;4044;49.814;7.828;2023-06-22T15:56:31;29.60;99.90
7998;DHT22;4044;49.814;7.828;2023-06-22T15:58:56;29.90;99.90
7998;DHT22;4044;49.814;7.828;2023-06-22T16:01:22;31.30;99.90